Aérodrome de la Montagne Noire

METAR LFCK TAF LFCK
3 °C
°C
-
°C
27m
年龄
04:57:21
LT
03:57
UTC
0 ft

1.000

2.000

3.000

4.000

5.000

OVC 2.900
MVFR
<?= Yii::t('app', 'Wind direction') ?> <?= Yii::t('app', 'of'); ?>
310°
08:11
日出
75%
湿度
风切变
关闭/下雪
RWY可视范围
RWY状况
垂直能见度
最低能见度
CAVOK
趋势
纠正
特别报告
1020 hPa
QNH
METAR LFCK 280330Z AUTO 31013KT 9999 OVC029 03/M01 Q1020
灰蒙蒙
11 kt
11 kt
10 km+
能见度
2.900 ft
天花板
13 kt
metar-taf.com/LFMG

Metar-Taf.com

视觉解码器

我们和第三方通过cookies跟踪您在我们网站上的互联网行为。如果你继续,我们认为你同意我们的饼干政策